createdAt,value
2023-05-20T00:02:00.232Z,14.20
2023-05-20T00:04:28.360Z,14.20
2023-05-20T00:06:56.387Z,14.20
2023-05-20T00:09:24.355Z,14.10
2023-05-20T00:11:53.859Z,14.10
2023-05-20T00:14:21.847Z,14.10
2023-05-20T00:16:50.026Z,14.10
2023-05-20T00:19:18.114Z,14.10
2023-05-20T00:21:46.164Z,14.10
2023-05-20T00:24:14.233Z,14.10
2023-05-20T00:26:42.268Z,14.10
2023-05-20T00:29:11.648Z,14.00
2023-05-20T00:31:39.826Z,14.00
2023-05-20T00:34:07.870Z,14.00
2023-05-20T00:36:36.689Z,14.00
2023-05-20T00:39:04.864Z,13.90
2023-05-20T00:41:33.527Z,13.90
2023-05-20T00:44:01.511Z,13.90
2023-05-20T00:46:31.128Z,13.90
2023-05-20T00:48:59.529Z,13.80
2023-05-20T00:51:27.661Z,13.80
2023-05-20T00:53:56.199Z,13.80
2023-05-20T00:56:24.443Z,13.80
2023-05-20T00:58:52.683Z,13.70
2023-05-20T01:01:20.791Z,13.70
2023-05-20T01:03:50.203Z,13.70
2023-05-20T01:06:18.218Z,13.70
2023-05-20T01:08:46.227Z,13.70
2023-05-20T01:11:23.622Z,13.60
2023-05-20T01:13:57.869Z,13.60
2023-05-20T01:16:26.367Z,13.60
2023-05-20T01:18:58.364Z,13.60
2023-05-20T01:21:28.549Z,13.60
2023-05-20T01:23:57.916Z,13.50
2023-05-20T01:26:27.266Z,13.50
2023-05-20T01:28:57.880Z,13.50
2023-05-20T01:31:30.915Z,13.50
2023-05-20T01:33:59.682Z,13.50
2023-05-20T01:36:28.254Z,13.50
2023-05-20T01:38:58.605Z,13.40
2023-05-20T01:41:28.281Z,13.40
2023-05-20T01:43:57.050Z,13.40
2023-05-20T01:46:25.292Z,13.40
2023-05-20T01:48:53.400Z,13.40
2023-05-20T01:51:21.375Z,13.40
2023-05-20T01:53:49.364Z,13.40
2023-05-20T01:56:20.488Z,13.40
2023-05-20T01:58:48.536Z,13.40
2023-05-20T02:01:16.886Z,13.40
2023-05-20T02:03:44.902Z,13.40
2023-05-20T02:06:12.998Z,13.40
2023-05-20T02:08:41.039Z,13.40
2023-05-20T02:11:10.274Z,13.40
2023-05-20T02:13:40.353Z,13.40
2023-05-20T02:16:08.556Z,13.40
2023-05-20T02:18:36.626Z,13.30
2023-05-20T02:21:05.586Z,13.30
2023-05-20T02:23:33.649Z,13.30
2023-05-20T02:26:02.333Z,13.30
2023-05-20T02:28:30.344Z,13.30
2023-05-20T02:30:59.701Z,13.30
2023-05-20T02:33:29.013Z,13.30
2023-05-20T02:35:57.264Z,13.30
2023-05-20T02:38:25.604Z,13.30
2023-05-20T02:40:54.725Z,13.30
2023-05-20T02:43:22.764Z,13.20
2023-05-20T02:45:50.809Z,13.20
2023-05-20T02:48:20.147Z,13.10
2023-05-20T02:50:48.340Z,13.20
2023-05-20T02:53:16.357Z,13.20
2023-05-20T02:55:45.067Z,13.10
2023-05-20T02:58:13.417Z,13.10
2023-05-20T03:00:41.674Z,13.10
2023-05-20T03:03:11.192Z,13.10
2023-05-20T03:05:42.594Z,13.10
2023-05-20T03:08:11.764Z,13.10
2023-05-20T03:10:40.441Z,13.10
2023-05-20T03:13:11.191Z,13.10
2023-05-20T03:15:39.572Z,13.10
2023-05-20T03:18:08.550Z,13.10
2023-05-20T03:20:38.484Z,13.00
2023-05-20T03:23:08.371Z,13.00
2023-05-20T03:25:36.526Z,13.00
2023-05-20T03:28:04.617Z,13.10
2023-05-20T03:30:32.651Z,13.10
2023-05-20T03:33:02.915Z,13.10
2023-05-20T03:35:31.095Z,13.20
2023-05-20T03:38:01.581Z,13.20
2023-05-20T03:40:31.000Z,13.20
2023-05-20T03:42:58.986Z,13.20
2023-05-20T03:45:27.208Z,13.20
2023-05-20T03:47:55.644Z,13.30
2023-05-20T03:50:23.725Z,13.30
2023-05-20T03:52:51.737Z,13.30
2023-05-20T03:55:20.540Z,13.40
2023-05-20T03:57:49.935Z,13.40
2023-05-20T04:00:18.723Z,13.40
2023-05-20T04:02:46.978Z,13.50
2023-05-20T04:05:15.124Z,13.50
2023-05-20T04:07:43.107Z,13.50
2023-05-20T04:10:11.944Z,13.50
2023-05-20T04:12:39.920Z,13.50
2023-05-20T04:15:10.919Z,13.50
2023-05-20T04:17:40.527Z,13.50
2023-05-20T04:20:11.340Z,13.60
2023-05-20T04:22:39.846Z,13.60
2023-05-20T04:25:08.426Z,13.60
2023-05-20T04:27:37.593Z,13.50
2023-05-20T04:30:06.750Z,13.60
2023-05-20T04:32:36.166Z,13.50
2023-05-20T04:35:07.712Z,13.50
2023-05-20T04:37:37.471Z,13.50
2023-05-20T04:40:07.208Z,13.60
2023-05-20T04:42:35.505Z,13.60
2023-05-20T04:45:05.744Z,13.60
2023-05-20T04:47:38.624Z,13.60
2023-05-20T04:50:08.788Z,13.50
2023-05-20T04:52:37.080Z,13.50
2023-05-20T04:55:05.739Z,13.50
2023-05-20T04:57:35.298Z,13.60
2023-05-20T05:00:07.415Z,13.60
2023-05-20T05:02:37.235Z,13.60
2023-05-20T05:05:06.265Z,13.60
2023-05-20T05:07:34.428Z,13.60
2023-05-20T05:10:02.413Z,13.60
2023-05-20T05:12:30.402Z,13.70
2023-05-20T05:14:59.214Z,13.60
2023-05-20T05:17:28.642Z,13.60
2023-05-20T05:19:58.142Z,13.70
2023-05-20T05:22:26.248Z,13.70
2023-05-20T05:24:55.739Z,13.80
2023-05-20T05:27:24.030Z,13.90
2023-05-20T05:29:52.091Z,13.90
2023-05-20T05:32:20.119Z,13.90
2023-05-20T05:34:48.113Z,13.90
2023-05-20T05:37:17.645Z,13.90
2023-05-20T05:39:45.640Z,13.90
2023-05-20T05:42:13.640Z,13.90
2023-05-20T05:44:43.360Z,13.90
2023-05-20T05:47:11.649Z,13.80
2023-05-20T05:49:39.677Z,13.80
2023-05-20T05:52:07.999Z,13.70
2023-05-20T05:54:37.366Z,13.80
2023-05-20T05:57:06.553Z,13.80
2023-05-20T05:59:34.676Z,13.80
2023-05-20T06:02:02.801Z,13.70
2023-05-20T06:04:30.979Z,13.80
2023-05-20T06:06:59.383Z,13.80
2023-05-20T06:09:27.346Z,13.90
2023-05-20T06:11:56.736Z,14.00
2023-05-20T06:14:24.717Z,14.10
2023-05-20T06:16:52.809Z,14.10
2023-05-20T06:19:20.918Z,14.20
2023-05-20T06:21:48.930Z,14.20
2023-05-20T06:24:16.997Z,14.30
2023-05-20T06:26:45.983Z,14.40
2023-05-20T06:29:15.396Z,14.40
2023-05-20T06:31:43.393Z,14.40
2023-05-20T06:34:11.422Z,14.40
2023-05-20T06:36:39.465Z,14.40
2023-05-20T06:39:12.251Z,14.40
2023-05-20T06:41:40.635Z,14.40
2023-05-20T06:44:09.028Z,14.40
2023-05-20T06:46:38.437Z,14.50
2023-05-20T06:49:06.490Z,14.50
2023-05-20T06:51:34.454Z,14.50
2023-05-20T06:54:02.559Z,14.50
2023-05-20T06:56:30.558Z,14.60
2023-05-20T06:58:58.555Z,14.60
2023-05-20T07:01:26.631Z,14.60
2023-05-20T07:03:56.154Z,14.60
2023-05-20T07:06:24.772Z,14.70
2023-05-20T07:08:52.822Z,14.80
2023-05-20T07:11:21.731Z,14.90
2023-05-20T07:13:49.758Z,15.10
2023-05-20T07:16:19.381Z,15.10
2023-05-20T07:18:47.429Z,15.10
2023-05-20T07:21:16.860Z,15.10
2023-05-20T07:23:45.021Z,15.30
2023-05-20T07:26:13.032Z,15.30
2023-05-20T07:28:41.204Z,15.40
2023-05-20T07:31:09.259Z,15.30
2023-05-20T07:33:37.287Z,15.30
2023-05-20T07:36:05.382Z,15.30
2023-05-20T07:38:34.887Z,15.40
2023-05-20T07:41:02.874Z,15.40
2023-05-20T07:43:30.886Z,15.40
2023-05-20T07:45:58.940Z,15.40
2023-05-20T07:48:26.982Z,15.40
2023-05-20T07:50:57.214Z,15.50
2023-05-20T07:53:25.232Z,15.60
2023-05-20T07:55:54.586Z,15.70
2023-05-20T07:58:22.733Z,15.70
2023-05-20T08:00:50.974Z,15.80
2023-05-20T08:03:19.623Z,15.90
2023-05-20T08:05:47.695Z,16.10
2023-05-20T08:08:16.178Z,16.10
2023-05-20T08:10:44.282Z,16.20
2023-05-20T08:13:13.615Z,16.30
2023-05-20T08:15:41.666Z,16.50
2023-05-20T08:18:09.754Z,16.50
2023-05-20T08:20:37.880Z,16.70
2023-05-20T08:23:05.923Z,16.80
2023-05-20T08:25:34.121Z,16.90
2023-05-20T08:28:05.508Z,17.00
2023-05-20T08:30:35.223Z,17.00
2023-05-20T08:33:03.223Z,16.90
2023-05-20T08:35:31.421Z,16.90
2023-05-20T08:37:59.765Z,16.90
2023-05-20T08:40:28.579Z,17.10
2023-05-20T08:42:57.759Z,17.20
2023-05-20T08:45:28.681Z,17.40
2023-05-20T08:47:59.406Z,17.50
2023-05-20T08:50:27.587Z,17.60
2023-05-20T08:52:55.663Z,17.70
2023-05-20T08:55:27.808Z,17.70
2023-05-20T08:57:57.195Z,17.70
2023-05-20T09:00:28.797Z,17.70
2023-05-20T09:03:00.876Z,17.70
2023-05-20T09:05:29.622Z,17.80
2023-05-20T09:08:07.549Z,17.70
2023-05-20T09:10:36.462Z,17.70
2023-05-20T09:13:05.377Z,17.60
2023-05-20T09:15:34.085Z,17.60
2023-05-20T09:18:04.855Z,17.60
2023-05-20T09:20:35.085Z,17.60
2023-05-20T09:23:03.950Z,17.60
2023-05-20T09:25:32.516Z,17.70
2023-05-20T09:28:00.633Z,17.80
2023-05-20T09:30:28.686Z,17.80
2023-05-20T09:32:57.602Z,17.90
2023-05-20T09:35:28.816Z,18.00
2023-05-20T09:37:57.846Z,18.10
2023-05-20T09:40:27.911Z,18.10
2023-05-20T09:42:58.407Z,18.00
2023-05-20T09:45:27.099Z,18.10
2023-05-20T09:47:56.575Z,18.20
2023-05-20T09:50:26.854Z,18.20
2023-05-20T09:52:56.173Z,18.20
2023-05-20T09:55:26.131Z,18.10
2023-05-20T09:57:55.341Z,18.10
2023-05-20T10:00:23.438Z,18.00
2023-05-20T10:02:53.140Z,18.00
2023-05-20T10:05:24.204Z,18.00
2023-05-20T10:08:12.899Z,18.00
2023-05-20T10:10:49.199Z,18.00
2023-05-20T10:13:45.214Z,18.10
2023-05-20T10:16:24.799Z,18.20
2023-05-20T10:18:59.759Z,18.30
2023-05-20T10:21:27.807Z,18.30
2023-05-20T10:24:07.777Z,18.40
2023-05-20T10:26:38.990Z,18.30
2023-05-20T10:29:17.210Z,18.20
2023-05-20T10:31:51.208Z,18.20
2023-05-20T10:34:20.796Z,18.20
2023-05-20T10:36:59.188Z,18.30
2023-05-20T10:39:30.278Z,18.40
2023-05-20T10:42:08.699Z,18.60
2023-05-20T10:44:44.403Z,18.60
2023-05-20T10:49:48.481Z,18.90
2023-05-20T10:52:17.740Z,19.00
2023-05-20T10:54:50.149Z,19.10
2023-05-20T10:57:20.116Z,19.20
2023-05-20T10:59:48.747Z,19.30
2023-05-20T11:02:17.798Z,19.30
2023-05-20T11:04:46.653Z,19.20
2023-05-20T11:07:14.844Z,19.20
2023-05-20T11:09:50.963Z,19.20
2023-05-20T11:12:19.188Z,19.20
2023-05-20T11:14:49.635Z,19.30
2023-05-20T11:17:18.293Z,19.40
2023-05-20T11:19:47.774Z,19.50
2023-05-20T11:22:16.140Z,19.60
2023-05-20T11:24:44.311Z,19.80
2023-05-20T11:27:13.711Z,20.10
2023-05-20T11:29:42.121Z,20.30
2023-05-20T11:32:10.222Z,20.50
2023-05-20T11:34:39.355Z,20.70
2023-05-20T11:37:09.189Z,20.70
2023-05-20T11:39:38.023Z,20.70
2023-05-20T11:42:06.927Z,20.60
2023-05-20T11:44:36.543Z,20.50
2023-05-20T11:47:05.220Z,20.40
2023-05-20T11:49:40.970Z,20.30
2023-05-20T11:52:11.791Z,20.30
2023-05-20T11:54:40.042Z,20.40
2023-05-20T11:57:08.567Z,20.40
2023-05-20T11:59:37.943Z,20.50
2023-05-20T12:02:06.234Z,20.50
2023-05-20T12:04:34.216Z,20.40
2023-05-20T12:07:04.066Z,20.30
2023-05-20T12:09:32.102Z,20.20
2023-05-20T12:12:00.146Z,20.30
2023-05-20T12:14:28.129Z,20.40
2023-05-20T12:16:57.526Z,20.50
2023-05-20T12:19:25.594Z,20.60
2023-05-20T12:21:53.776Z,20.60
2023-05-20T12:24:21.789Z,20.50
2023-05-20T12:26:49.850Z,20.40
2023-05-20T12:29:17.859Z,20.40
2023-05-20T12:31:45.982Z,20.40
2023-05-20T12:34:15.425Z,20.50
2023-05-20T12:36:43.438Z,20.50
2023-05-20T12:39:12.367Z,20.50
2023-05-20T12:41:40.512Z,20.40
2023-05-20T12:44:08.574Z,20.40
2023-05-20T12:46:37.113Z,20.50
2023-05-20T12:49:05.432Z,20.50
2023-05-20T12:51:34.919Z,20.50
2023-05-20T12:54:02.995Z,20.40
2023-05-20T12:56:31.029Z,20.30
2023-05-20T12:58:59.392Z,20.20
2023-05-20T13:01:27.663Z,20.10
2023-05-20T13:03:55.749Z,20.10
2023-05-20T13:06:23.748Z,20.00
2023-05-20T13:08:53.157Z,20.00
2023-05-20T13:11:21.721Z,20.00
2023-05-20T13:13:49.707Z,20.00
2023-05-20T13:16:18.236Z,19.90
2023-05-20T13:18:46.577Z,19.90
2023-05-20T13:21:14.594Z,19.90
2023-05-20T13:23:43.242Z,19.80
2023-05-20T13:26:12.761Z,19.80
2023-05-20T13:28:40.759Z,19.70
2023-05-20T13:31:08.869Z,19.80
2023-05-20T13:33:36.931Z,19.80
2023-05-20T13:36:05.636Z,19.90
2023-05-20T13:38:35.242Z,19.90
2023-05-20T13:41:04.630Z,19.90
2023-05-20T13:43:34.190Z,19.90
2023-05-20T13:46:02.292Z,19.90
2023-05-20T13:48:30.537Z,20.00
2023-05-20T13:50:58.638Z,20.10
2023-05-20T13:53:26.680Z,20.10
2023-05-20T13:55:54.828Z,20.30
2023-05-20T13:58:23.016Z,20.40
2023-05-20T14:00:52.380Z,20.50
2023-05-20T14:03:20.512Z,20.50
2023-05-20T14:05:48.549Z,20.50
2023-05-20T14:08:16.570Z,20.50
2023-05-20T14:10:44.590Z,20.50
2023-05-20T14:13:12.593Z,20.60
2023-05-20T14:15:40.694Z,20.70
2023-05-20T14:18:10.711Z,20.80
2023-05-20T14:20:38.758Z,20.80
2023-05-20T14:23:06.793Z,20.70
2023-05-20T14:25:34.886Z,20.70
2023-05-20T14:28:02.955Z,20.60
2023-05-20T14:30:31.012Z,20.60
2023-05-20T14:32:59.161Z,20.70
2023-05-20T14:35:28.772Z,20.80
2023-05-20T14:37:56.751Z,20.80
2023-05-20T14:40:24.895Z,20.70
2023-05-20T14:42:52.877Z,20.70
2023-05-20T14:45:21.226Z,20.80
2023-05-20T14:47:49.274Z,20.90
2023-05-20T14:50:17.302Z,21.00
2023-05-20T14:52:46.676Z,21.10
2023-05-20T14:55:14.845Z,21.10
2023-05-20T14:57:43.028Z,21.20
2023-05-20T15:00:12.544Z,21.20
2023-05-20T15:02:40.684Z,21.30
2023-05-20T15:05:11.893Z,21.50
2023-05-20T15:07:40.042Z,21.80
2023-05-20T15:10:10.135Z,22.00
2023-05-20T15:12:38.186Z,22.10
2023-05-20T15:15:07.262Z,22.20
2023-05-20T15:17:35.345Z,22.30
2023-05-20T15:20:03.780Z,22.40
2023-05-20T15:22:31.992Z,22.40
2023-05-20T15:25:00.016Z,22.50
2023-05-20T15:27:29.358Z,22.60
2023-05-20T15:29:57.489Z,22.70
2023-05-20T15:32:25.689Z,22.80
2023-05-20T15:34:53.802Z,22.80
2023-05-20T15:37:22.054Z,22.80
2023-05-20T15:39:50.083Z,22.80
2023-05-20T15:42:18.355Z,22.70
2023-05-20T15:44:48.032Z,22.70
2023-05-20T15:47:16.085Z,22.80
2023-05-20T15:49:44.100Z,23.00
2023-05-20T15:52:12.239Z,23.00
2023-05-20T15:54:40.260Z,23.10
2023-05-20T15:57:08.251Z,23.20
2023-05-20T15:59:36.303Z,23.30
2023-05-20T16:02:06.162Z,23.20
2023-05-20T16:04:34.337Z,23.20
2023-05-20T16:07:02.372Z,23.30
2023-05-20T16:09:30.424Z,23.50
2023-05-20T16:11:58.514Z,23.60
2023-05-20T16:14:26.472Z,23.70
2023-05-20T16:16:54.512Z,23.70
2023-05-20T16:19:24.157Z,23.80
2023-05-20T16:21:52.208Z,24.00
2023-05-20T16:24:20.212Z,24.10
2023-05-20T16:26:48.236Z,24.20
2023-05-20T16:29:16.767Z,24.30
2023-05-20T16:31:46.602Z,24.30
2023-05-20T16:34:16.889Z,24.30
2023-05-20T16:36:46.529Z,24.40
2023-05-20T16:39:14.686Z,24.50
2023-05-20T16:41:43.133Z,24.60
2023-05-20T16:44:11.534Z,24.70
2023-05-20T16:46:39.549Z,24.70
2023-05-20T16:49:07.718Z,24.80
2023-05-20T16:51:35.853Z,24.80
2023-05-20T16:54:05.352Z,24.80
2023-05-20T16:56:35.231Z,24.80
2023-05-20T16:59:03.542Z,24.90
2023-05-20T17:01:31.878Z,24.90
2023-05-20T17:04:00.234Z,24.90
2023-05-20T17:06:28.323Z,24.90
2023-05-20T17:08:56.601Z,24.90
2023-05-20T17:11:26.025Z,24.80
2023-05-20T17:13:54.013Z,24.80
2023-05-20T17:16:22.213Z,24.70
2023-05-20T17:18:50.455Z,24.70
2023-05-20T17:21:20.360Z,24.70
2023-05-20T17:23:48.628Z,24.70
2023-05-20T17:26:17.135Z,24.60
2023-05-20T17:28:46.606Z,24.40
2023-05-20T17:31:15.142Z,24.10
2023-05-20T17:33:43.284Z,23.90
2023-05-20T17:36:11.429Z,23.60
2023-05-20T17:38:39.431Z,23.50
2023-05-20T17:41:07.729Z,23.30
2023-05-20T17:43:35.712Z,23.20
2023-05-20T17:46:05.554Z,23.10
2023-05-20T17:48:33.920Z,23.10
2023-05-20T17:51:01.940Z,23.20
2023-05-20T17:53:30.045Z,23.40
2023-05-20T17:55:58.138Z,23.60
2023-05-20T17:58:27.169Z,23.60
2023-05-20T18:00:55.179Z,23.50
2023-05-20T18:03:24.645Z,23.30
2023-05-20T18:05:55.093Z,23.20
2023-05-20T18:08:25.264Z,23.00
2023-05-20T18:10:53.507Z,22.80
2023-05-20T18:13:21.721Z,22.70
2023-05-20T18:15:49.771Z,22.60
2023-05-20T18:18:17.861Z,22.50
2023-05-20T18:20:47.288Z,22.40
2023-05-20T18:23:15.535Z,22.40
2023-05-20T18:25:43.594Z,22.30
2023-05-20T18:28:13.196Z,22.30
2023-05-20T18:30:41.400Z,22.20
2023-05-20T18:33:09.849Z,22.20
2023-05-20T18:35:39.127Z,22.20
2023-05-20T18:38:08.788Z,22.10
2023-05-20T18:40:36.900Z,22.10
2023-05-20T18:43:05.124Z,22.00
2023-05-20T18:45:33.275Z,22.00
2023-05-20T18:48:01.702Z,21.90
2023-05-20T18:50:29.750Z,21.80
2023-05-20T18:52:57.775Z,21.80
2023-05-20T18:55:30.256Z,21.70
2023-05-20T18:57:58.411Z,21.60
2023-05-20T19:00:26.464Z,21.50
2023-05-20T19:02:57.945Z,21.50
2023-05-20T19:05:26.111Z,21.40
2023-05-20T19:07:54.176Z,21.40
2023-05-20T19:10:22.300Z,21.30
2023-05-20T19:12:51.613Z,21.20
2023-05-20T19:15:19.652Z,21.20
2023-05-20T19:17:47.685Z,21.10
2023-05-20T19:20:15.821Z,21.10
2023-05-20T19:22:43.862Z,21.00
2023-05-20T19:25:12.209Z,21.00
2023-05-20T19:27:40.455Z,20.90
2023-05-20T19:30:11.343Z,20.90
2023-05-20T19:32:39.729Z,20.90
2023-05-20T19:35:08.590Z,20.90
2023-05-20T19:37:36.637Z,20.90
2023-05-20T19:40:07.449Z,20.90
2023-05-20T19:42:35.532Z,20.80
2023-05-20T19:45:03.609Z,20.80
2023-05-20T19:47:33.018Z,20.70
2023-05-20T19:50:01.505Z,20.70
2023-05-20T19:52:29.644Z,20.70
2023-05-20T19:54:57.693Z,20.60
2023-05-20T19:57:26.047Z,20.60
2023-05-20T19:59:54.105Z,20.60
2023-05-20T20:02:22.297Z,20.50
2023-05-20T20:04:51.736Z,20.50
2023-05-20T20:07:19.759Z,20.50
2023-05-20T20:09:49.011Z,20.50
2023-05-20T20:12:16.996Z,20.40
2023-05-20T20:14:44.989Z,20.40
2023-05-20T20:17:16.785Z,20.40
2023-05-20T20:19:46.314Z,20.40
2023-05-20T20:22:17.066Z,20.30
2023-05-20T20:24:45.240Z,20.30
2023-05-20T20:27:13.855Z,20.20
2023-05-20T20:29:42.148Z,20.20
2023-05-20T20:32:10.257Z,20.20
2023-05-20T20:34:38.324Z,20.20
2023-05-20T20:37:07.413Z,20.20
2023-05-20T20:39:37.263Z,20.20
2023-05-20T20:42:05.624Z,20.20
2023-05-20T20:44:33.623Z,20.20
2023-05-20T20:47:04.053Z,20.20
2023-05-20T20:49:33.093Z,20.10
2023-05-20T20:52:01.148Z,20.20
2023-05-20T20:54:29.148Z,20.10
2023-05-20T20:56:59.939Z,20.10
2023-05-20T20:59:28.036Z,20.10
2023-05-20T21:01:57.675Z,20.10
2023-05-20T21:04:27.814Z,20.10
2023-05-20T21:06:55.979Z,20.10
2023-05-20T21:09:24.262Z,20.10
2023-05-20T21:11:52.252Z,20.00
2023-05-20T21:14:21.581Z,20.00
2023-05-20T21:16:49.652Z,20.00
2023-05-20T21:19:17.784Z,20.00
2023-05-20T21:21:45.823Z,19.90
2023-05-20T21:24:13.821Z,19.90
2023-05-20T21:26:41.827Z,19.80
2023-05-20T21:29:11.927Z,19.70
2023-05-20T21:31:41.373Z,19.70
2023-05-20T21:34:09.326Z,19.60
2023-05-20T21:36:37.376Z,19.60
2023-05-20T21:39:05.652Z,19.50
2023-05-20T21:41:33.838Z,19.40
2023-05-20T21:44:01.833Z,19.40
2023-05-20T21:46:29.927Z,19.30
2023-05-20T21:48:59.339Z,19.30
2023-05-20T21:51:27.352Z,19.30
2023-05-20T21:53:55.333Z,19.30
2023-05-20T21:56:23.308Z,19.20
2023-05-20T21:58:51.498Z,19.20
2023-05-20T22:01:19.721Z,19.10
2023-05-20T22:03:51.356Z,19.00
2023-05-20T22:06:22.005Z,19.00
2023-05-20T22:08:50.065Z,19.00
2023-05-20T22:11:18.097Z,18.90
2023-05-20T22:13:46.104Z,18.90
2023-05-20T22:16:15.873Z,18.90
2023-05-20T22:18:44.494Z,18.80
2023-05-20T22:21:12.615Z,18.80
2023-05-20T22:23:42.453Z,18.80
2023-05-20T22:26:10.489Z,18.80
2023-05-20T22:28:38.493Z,18.80
2023-05-20T22:31:06.677Z,18.80
2023-05-20T22:33:34.669Z,18.70
2023-05-20T22:36:02.691Z,18.80
2023-05-20T22:38:30.874Z,18.70
2023-05-20T22:41:00.291Z,18.70
2023-05-20T22:43:28.524Z,18.70
2023-05-20T22:45:56.710Z,18.70
2023-05-20T22:48:24.749Z,18.70
2023-05-20T22:50:54.032Z,18.70
2023-05-20T22:53:22.052Z,18.70
2023-05-20T22:55:50.104Z,18.70
2023-05-20T22:58:19.454Z,18.70
2023-05-20T23:00:47.514Z,18.60
2023-05-20T23:03:15.898Z,18.60
2023-05-20T23:05:43.924Z,18.60
2023-05-20T23:08:11.935Z,18.60
2023-05-20T23:10:39.888Z,18.50
2023-05-20T23:13:07.880Z,18.50
2023-05-20T23:15:37.393Z,18.50
2023-05-20T23:18:05.716Z,18.50
2023-05-20T23:20:33.744Z,18.50
2023-05-20T23:23:08.331Z,18.40
2023-05-20T23:25:39.483Z,18.40
2023-05-20T23:28:07.692Z,18.40
2023-05-20T23:30:37.442Z,18.40
2023-05-20T23:33:05.671Z,18.40
2023-05-20T23:35:34.040Z,18.30
2023-05-20T23:38:02.335Z,18.30
2023-05-20T23:40:30.553Z,18.30
2023-05-20T23:42:58.711Z,18.20
2023-05-20T23:45:26.680Z,18.20
2023-05-20T23:47:57.945Z,18.10
2023-05-20T23:50:27.756Z,18.10
2023-05-20T23:52:56.060Z,18.10
2023-05-20T23:55:24.054Z,18.10
2023-05-20T23:57:52.035Z,18.00
